sensor_id;sensor_type;location;lat;lon;timestamp;P1;durP1;ratioP1;P2;durP2;ratioP2
10481;SDS011;5288;42.334;23.876;2023-07-02T00:02:20;7.77;;;6.20;;
10481;SDS011;5288;42.334;23.876;2023-07-02T00:04:47;7.33;;;6.10;;
10481;SDS011;5288;42.334;23.876;2023-07-02T00:07:14;12.83;;;7.03;;
10481;SDS011;5288;42.334;23.876;2023-07-02T00:09:43;8.27;;;6.13;;
10481;SDS011;5288;42.334;23.876;2023-07-02T00:12:13;10.07;;;6.07;;
10481;SDS011;5288;42.334;23.876;2023-07-02T00:14:40;8.97;;;6.80;;
10481;SDS011;5288;42.334;23.876;2023-07-02T00:17:07;8.10;;;6.40;;
10481;SDS011;5288;42.334;23.876;2023-07-02T00:19:37;9.23;;;6.57;;
10481;SDS011;5288;42.334;23.876;2023-07-02T00:22:06;9.23;;;6.53;;
10481;SDS011;5288;42.334;23.876;2023-07-02T00:24:34;11.47;;;7.30;;
10481;SDS011;5288;42.334;23.876;2023-07-02T00:27:01;8.63;;;6.90;;
10481;SDS011;5288;42.334;23.876;2023-07-02T00:29:29;12.03;;;7.87;;
10481;SDS011;5288;42.334;23.876;2023-07-02T00:31:56;14.03;;;7.40;;
10481;SDS011;5288;42.334;23.876;2023-07-02T00:34:23;10.20;;;6.97;;
10481;SDS011;5288;42.334;23.876;2023-07-02T00:36:51;12.73;;;7.13;;
10481;SDS011;5288;42.334;23.876;2023-07-02T00:39:19;11.53;;;7.53;;
10481;SDS011;5288;42.334;23.876;2023-07-02T00:41:46;12.90;;;7.10;;
10481;SDS011;5288;42.334;23.876;2023-07-02T00:44:13;9.63;;;6.87;;
10481;SDS011;5288;42.334;23.876;2023-07-02T00:46:41;11.07;;;7.43;;
10481;SDS011;5288;42.334;23.876;2023-07-02T00:49:08;12.07;;;7.50;;
10481;SDS011;5288;42.334;23.876;2023-07-02T00:51:36;9.63;;;6.97;;
10481;SDS011;5288;42.334;23.876;2023-07-02T00:54:04;12.60;;;7.93;;
10481;SDS011;5288;42.334;23.876;2023-07-02T00:56:31;10.10;;;7.60;;
10481;SDS011;5288;42.334;23.876;2023-07-02T00:58:58;9.80;;;7.90;;
10481;SDS011;5288;42.334;23.876;2023-07-02T01:01:26;10.67;;;7.87;;
10481;SDS011;5288;42.334;23.876;2023-07-02T01:03:57;11.77;;;7.83;;
10481;SDS011;5288;42.334;23.876;2023-07-02T01:06:25;12.07;;;8.60;;
10481;SDS011;5288;42.334;23.876;2023-07-02T01:08:55;9.73;;;8.30;;
10481;SDS011;5288;42.334;23.876;2023-07-02T01:11:25;13.83;;;9.20;;
10481;SDS011;5288;42.334;23.876;2023-07-02T01:13:55;15.83;;;9.97;;
10481;SDS011;5288;42.334;23.876;2023-07-02T01:16:25;10.93;;;9.27;;
10481;SDS011;5288;42.334;23.876;2023-07-02T01:18:57;14.03;;;9.27;;
10481;SDS011;5288;42.334;23.876;2023-07-02T01:21:30;13.73;;;9.10;;
10481;SDS011;5288;42.334;23.876;2023-07-02T01:23:58;12.80;;;8.90;;
10481;SDS011;5288;42.334;23.876;2023-07-02T01:26:27;12.30;;;9.87;;
10481;SDS011;5288;42.334;23.876;2023-07-02T01:28:55;13.00;;;10.63;;
10481;SDS011;5288;42.334;23.876;2023-07-02T01:31:22;11.87;;;9.03;;
10481;SDS011;5288;42.334;23.876;2023-07-02T01:33:50;10.87;;;9.60;;
10481;SDS011;5288;42.334;23.876;2023-07-02T01:36:18;11.60;;;9.73;;
10481;SDS011;5288;42.334;23.876;2023-07-02T01:38:46;11.87;;;9.10;;
10481;SDS011;5288;42.334;23.876;2023-07-02T01:41:13;11.47;;;8.93;;
10481;SDS011;5288;42.334;23.876;2023-07-02T01:43:40;13.23;;;8.87;;
10481;SDS011;5288;42.334;23.876;2023-07-02T01:46:07;10.13;;;8.60;;
10481;SDS011;5288;42.334;23.876;2023-07-02T01:48:34;10.50;;;8.47;;
10481;SDS011;5288;42.334;23.876;2023-07-02T01:51:01;13.10;;;8.47;;
10481;SDS011;5288;42.334;23.876;2023-07-02T01:53:28;12.97;;;8.23;;
10481;SDS011;5288;42.334;23.876;2023-07-02T01:55:56;12.87;;;8.37;;
10481;SDS011;5288;42.334;23.876;2023-07-02T01:58:25;13.23;;;8.03;;
10481;SDS011;5288;42.334;23.876;2023-07-02T02:00:52;10.90;;;9.23;;
10481;SDS011;5288;42.334;23.876;2023-07-02T02:03:19;11.67;;;8.87;;
10481;SDS011;5288;42.334;23.876;2023-07-02T02:05:49;14.00;;;9.57;;
10481;SDS011;5288;42.334;23.876;2023-07-02T02:08:16;12.93;;;8.97;;
10481;SDS011;5288;42.334;23.876;2023-07-02T02:10:43;11.77;;;9.67;;
10481;SDS011;5288;42.334;23.876;2023-07-02T02:13:11;14.17;;;9.10;;
10481;SDS011;5288;42.334;23.876;2023-07-02T02:15:39;16.50;;;9.77;;
10481;SDS011;5288;42.334;23.876;2023-07-02T02:18:07;14.77;;;9.97;;
10481;SDS011;5288;42.334;23.876;2023-07-02T02:20:34;15.40;;;9.47;;
10481;SDS011;5288;42.334;23.876;2023-07-02T02:23:01;13.13;;;9.77;;
10481;SDS011;5288;42.334;23.876;2023-07-02T02:25:28;12.67;;;11.37;;
10481;SDS011;5288;42.334;23.876;2023-07-02T02:27:57;12.53;;;10.93;;
10481;SDS011;5288;42.334;23.876;2023-07-02T02:30:26;12.83;;;11.00;;
10481;SDS011;5288;42.334;23.876;2023-07-02T02:32:53;12.47;;;10.77;;
10481;SDS011;5288;42.334;23.876;2023-07-02T02:35:20;13.83;;;11.13;;
10481;SDS011;5288;42.334;23.876;2023-07-02T02:37:47;16.03;;;10.80;;
10481;SDS011;5288;42.334;23.876;2023-07-02T02:40:16;12.93;;;11.43;;
10481;SDS011;5288;42.334;23.876;2023-07-02T02:42:43;13.93;;;11.53;;
10481;SDS011;5288;42.334;23.876;2023-07-02T02:45:10;12.87;;;11.57;;
10481;SDS011;5288;42.334;23.876;2023-07-02T02:47:39;13.73;;;11.30;;
10481;SDS011;5288;42.334;23.876;2023-07-02T02:50:06;13.50;;;11.03;;
10481;SDS011;5288;42.334;23.876;2023-07-02T02:52:34;12.47;;;10.40;;
10481;SDS011;5288;42.334;23.876;2023-07-02T02:55:02;14.03;;;10.97;;
10481;SDS011;5288;42.334;23.876;2023-07-02T02:57:29;12.40;;;9.50;;
10481;SDS011;5288;42.334;23.876;2023-07-02T02:59:56;11.23;;;10.07;;
10481;SDS011;5288;42.334;23.876;2023-07-02T03:02:23;12.47;;;10.20;;
10481;SDS011;5288;42.334;23.876;2023-07-02T03:04:51;11.03;;;9.80;;
10481;SDS011;5288;42.334;23.876;2023-07-02T03:07:19;16.40;;;10.77;;
10481;SDS011;5288;42.334;23.876;2023-07-02T03:09:46;12.93;;;10.20;;
10481;SDS011;5288;42.334;23.876;2023-07-02T03:12:13;12.63;;;9.87;;
10481;SDS011;5288;42.334;23.876;2023-07-02T03:14:40;12.93;;;9.43;;
10481;SDS011;5288;42.334;23.876;2023-07-02T03:17:07;13.53;;;9.90;;
10481;SDS011;5288;42.334;23.876;2023-07-02T03:19:34;11.40;;;10.20;;
10481;SDS011;5288;42.334;23.876;2023-07-02T03:22:02;12.17;;;10.07;;
10481;SDS011;5288;42.334;23.876;2023-07-02T03:24:29;13.10;;;10.00;;
10481;SDS011;5288;42.334;23.876;2023-07-02T03:26:56;11.43;;;9.80;;
10481;SDS011;5288;42.334;23.876;2023-07-02T03:29:23;12.20;;;10.90;;
10481;SDS011;5288;42.334;23.876;2023-07-02T03:31:50;10.73;;;9.50;;
10481;SDS011;5288;42.334;23.876;2023-07-02T03:34:17;11.27;;;9.90;;
10481;SDS011;5288;42.334;23.876;2023-07-02T03:36:44;12.00;;;10.30;;
10481;SDS011;5288;42.334;23.876;2023-07-02T03:39:13;12.93;;;9.83;;
10481;SDS011;5288;42.334;23.876;2023-07-02T03:41:40;9.70;;;8.70;;
10481;SDS011;5288;42.334;23.876;2023-07-02T03:44:07;12.23;;;9.77;;
10481;SDS011;5288;42.334;23.876;2023-07-02T03:46:34;11.97;;;10.10;;
10481;SDS011;5288;42.334;23.876;2023-07-02T03:49:01;10.37;;;8.60;;
10481;SDS011;5288;42.334;23.876;2023-07-02T03:51:29;12.00;;;10.10;;
10481;SDS011;5288;42.334;23.876;2023-07-02T03:53:57;13.67;;;10.97;;
10481;SDS011;5288;42.334;23.876;2023-07-02T03:56:26;14.13;;;9.77;;
10481;SDS011;5288;42.334;23.876;2023-07-02T03:58:53;17.93;;;11.47;;
10481;SDS011;5288;42.334;23.876;2023-07-02T04:01:20;14.70;;;12.07;;
10481;SDS011;5288;42.334;23.876;2023-07-02T04:03:50;14.67;;;10.50;;
10481;SDS011;5288;42.334;23.876;2023-07-02T04:06:19;13.70;;;10.57;;
10481;SDS011;5288;42.334;23.876;2023-07-02T04:08:46;14.60;;;10.87;;
10481;SDS011;5288;42.334;23.876;2023-07-02T04:11:13;17.00;;;11.47;;
10481;SDS011;5288;42.334;23.876;2023-07-02T04:13:41;13.13;;;9.93;;
10481;SDS011;5288;42.334;23.876;2023-07-02T04:16:08;18.90;;;10.43;;
10481;SDS011;5288;42.334;23.876;2023-07-02T04:18:35;10.40;;;8.47;;
10481;SDS011;5288;42.334;23.876;2023-07-02T04:21:02;10.43;;;8.80;;
10481;SDS011;5288;42.334;23.876;2023-07-02T04:23:29;11.93;;;8.93;;
10481;SDS011;5288;42.334;23.876;2023-07-02T04:25:56;11.50;;;8.20;;
10481;SDS011;5288;42.334;23.876;2023-07-02T04:28:23;10.43;;;8.20;;
10481;SDS011;5288;42.334;23.876;2023-07-02T04:30:53;9.27;;;8.37;;
10481;SDS011;5288;42.334;23.876;2023-07-02T04:33:20;10.60;;;8.63;;
10481;SDS011;5288;42.334;23.876;2023-07-02T04:35:47;11.70;;;8.10;;
10481;SDS011;5288;42.334;23.876;2023-07-02T04:38:14;12.27;;;8.40;;
10481;SDS011;5288;42.334;23.876;2023-07-02T04:40:41;9.93;;;8.20;;
10481;SDS011;5288;42.334;23.876;2023-07-02T04:43:10;9.53;;;8.03;;
10481;SDS011;5288;42.334;23.876;2023-07-02T04:45:37;9.37;;;8.37;;
10481;SDS011;5288;42.334;23.876;2023-07-02T04:48:06;10.90;;;8.43;;
10481;SDS011;5288;42.334;23.876;2023-07-02T04:50:33;10.13;;;8.20;;
10481;SDS011;5288;42.334;23.876;2023-07-02T04:53:00;9.83;;;8.47;;
10481;SDS011;5288;42.334;23.876;2023-07-02T04:55:27;12.40;;;8.67;;
10481;SDS011;5288;42.334;23.876;2023-07-02T04:57:54;10.07;;;9.00;;
10481;SDS011;5288;42.334;23.876;2023-07-02T05:00:21;12.53;;;9.40;;
10481;SDS011;5288;42.334;23.876;2023-07-02T05:02:48;11.63;;;9.30;;
10481;SDS011;5288;42.334;23.876;2023-07-02T05:05:17;11.17;;;9.27;;
10481;SDS011;5288;42.334;23.876;2023-07-02T05:07:44;11.17;;;8.63;;
10481;SDS011;5288;42.334;23.876;2023-07-02T05:10:11;13.67;;;10.10;;
10481;SDS011;5288;42.334;23.876;2023-07-02T05:12:39;18.47;;;9.90;;
10481;SDS011;5288;42.334;23.876;2023-07-02T05:15:06;16.97;;;9.60;;
10481;SDS011;5288;42.334;23.876;2023-07-02T05:17:34;12.50;;;8.87;;
10481;SDS011;5288;42.334;23.876;2023-07-02T05:20:01;11.20;;;9.57;;
10481;SDS011;5288;42.334;23.876;2023-07-02T05:22:31;13.27;;;8.87;;
10481;SDS011;5288;42.334;23.876;2023-07-02T05:24:58;11.40;;;8.63;;
10481;SDS011;5288;42.334;23.876;2023-07-02T05:27:25;12.63;;;8.90;;
10481;SDS011;5288;42.334;23.876;2023-07-02T05:29:52;12.30;;;9.43;;
10481;SDS011;5288;42.334;23.876;2023-07-02T05:32:19;14.33;;;8.53;;
10481;SDS011;5288;42.334;23.876;2023-07-02T05:34:46;14.17;;;8.73;;
10481;SDS011;5288;42.334;23.876;2023-07-02T05:37:13;13.60;;;8.73;;
10481;SDS011;5288;42.334;23.876;2023-07-02T05:39:42;10.13;;;8.13;;
10481;SDS011;5288;42.334;23.876;2023-07-02T05:42:09;11.37;;;7.63;;
10481;SDS011;5288;42.334;23.876;2023-07-02T05:44:36;9.53;;;7.40;;
10481;SDS011;5288;42.334;23.876;2023-07-02T05:47:03;13.23;;;8.70;;
10481;SDS011;5288;42.334;23.876;2023-07-02T05:49:30;9.57;;;8.10;;
10481;SDS011;5288;42.334;23.876;2023-07-02T05:51:57;10.50;;;8.30;;
10481;SDS011;5288;42.334;23.876;2023-07-02T05:54:24;10.37;;;6.97;;
10481;SDS011;5288;42.334;23.876;2023-07-02T05:56:52;13.47;;;8.23;;
10481;SDS011;5288;42.334;23.876;2023-07-02T05:59:20;9.73;;;7.50;;
10481;SDS011;5288;42.334;23.876;2023-07-02T06:01:47;12.50;;;8.50;;
10481;SDS011;5288;42.334;23.876;2023-07-02T06:04:14;13.13;;;11.53;;
10481;SDS011;5288;42.334;23.876;2023-07-02T06:06:41;10.90;;;7.50;;
10481;SDS011;5288;42.334;23.876;2023-07-02T06:09:08;9.97;;;8.37;;
10481;SDS011;5288;42.334;23.876;2023-07-02T06:11:35;9.53;;;7.90;;
10481;SDS011;5288;42.334;23.876;2023-07-02T06:14:04;11.23;;;8.17;;
10481;SDS011;5288;42.334;23.876;2023-07-02T06:16:33;11.00;;;7.67;;
10481;SDS011;5288;42.334;23.876;2023-07-02T06:19:00;9.57;;;7.97;;
10481;SDS011;5288;42.334;23.876;2023-07-02T06:21:27;8.93;;;7.73;;
10481;SDS011;5288;42.334;23.876;2023-07-02T06:23:55;8.77;;;7.37;;
10481;SDS011;5288;42.334;23.876;2023-07-02T06:26:24;13.10;;;8.00;;
10481;SDS011;5288;42.334;23.876;2023-07-02T06:28:51;9.80;;;7.73;;
10481;SDS011;5288;42.334;23.876;2023-07-02T06:31:19;10.40;;;8.03;;
10481;SDS011;5288;42.334;23.876;2023-07-02T06:33:46;10.27;;;8.13;;
10481;SDS011;5288;42.334;23.876;2023-07-02T06:36:13;12.17;;;7.83;;
10481;SDS011;5288;42.334;23.876;2023-07-02T06:38:41;11.03;;;8.27;;
10481;SDS011;5288;42.334;23.876;2023-07-02T06:41:09;11.03;;;8.70;;
10481;SDS011;5288;42.334;23.876;2023-07-02T06:43:36;11.10;;;9.00;;
10481;SDS011;5288;42.334;23.876;2023-07-02T06:46:03;10.40;;;8.67;;
10481;SDS011;5288;42.334;23.876;2023-07-02T06:48:32;9.37;;;7.70;;
10481;SDS011;5288;42.334;23.876;2023-07-02T06:50:59;10.53;;;7.80;;
10481;SDS011;5288;42.334;23.876;2023-07-02T06:53:26;9.80;;;8.37;;
10481;SDS011;5288;42.334;23.876;2023-07-02T06:55:53;8.73;;;7.23;;
10481;SDS011;5288;42.334;23.876;2023-07-02T06:58:20;10.33;;;7.87;;
10481;SDS011;5288;42.334;23.876;2023-07-02T07:00:47;9.83;;;7.43;;
10481;SDS011;5288;42.334;23.876;2023-07-02T07:03:15;13.13;;;8.37;;
10481;SDS011;5288;42.334;23.876;2023-07-02T07:05:44;9.17;;;7.43;;
10481;SDS011;5288;42.334;23.876;2023-07-02T07:08:11;10.60;;;7.73;;
10481;SDS011;5288;42.334;23.876;2023-07-02T07:10:38;10.00;;;7.57;;
10481;SDS011;5288;42.334;23.876;2023-07-02T07:13:05;10.57;;;7.50;;
10481;SDS011;5288;42.334;23.876;2023-07-02T07:15:32;8.60;;;7.23;;
10481;SDS011;5288;42.334;23.876;2023-07-02T07:18:00;7.73;;;6.97;;
10481;SDS011;5288;42.334;23.876;2023-07-02T07:20:27;9.07;;;7.60;;
10481;SDS011;5288;42.334;23.876;2023-07-02T07:22:56;8.30;;;6.83;;
10481;SDS011;5288;42.334;23.876;2023-07-02T07:25:23;10.03;;;7.50;;
10481;SDS011;5288;42.334;23.876;2023-07-02T07:27:51;8.60;;;7.07;;
10481;SDS011;5288;42.334;23.876;2023-07-02T07:30:18;9.60;;;7.10;;
10481;SDS011;5288;42.334;23.876;2023-07-02T07:32:48;9.40;;;7.50;;
10481;SDS011;5288;42.334;23.876;2023-07-02T07:35:16;8.87;;;7.33;;
10481;SDS011;5288;42.334;23.876;2023-07-02T07:37:43;11.40;;;7.53;;
10481;SDS011;5288;42.334;23.876;2023-07-02T07:40:13;10.43;;;7.40;;
10481;SDS011;5288;42.334;23.876;2023-07-02T07:42:40;8.50;;;7.03;;
10481;SDS011;5288;42.334;23.876;2023-07-02T07:45:09;8.93;;;6.97;;
10481;SDS011;5288;42.334;23.876;2023-07-02T07:47:37;10.13;;;7.77;;
10481;SDS011;5288;42.334;23.876;2023-07-02T07:50:05;10.67;;;7.97;;
10481;SDS011;5288;42.334;23.876;2023-07-02T07:52:36;10.37;;;8.33;;
10481;SDS011;5288;42.334;23.876;2023-07-02T07:55:06;11.60;;;7.93;;
10481;SDS011;5288;42.334;23.876;2023-07-02T07:57:36;15.20;;;8.13;;
10481;SDS011;5288;42.334;23.876;2023-07-02T08:00:04;11.30;;;8.03;;
10481;SDS011;5288;42.334;23.876;2023-07-02T08:02:34;11.43;;;8.00;;
10481;SDS011;5288;42.334;23.876;2023-07-02T08:05:01;9.17;;;7.17;;
10481;SDS011;5288;42.334;23.876;2023-07-02T08:07:31;10.37;;;7.80;;
10481;SDS011;5288;42.334;23.876;2023-07-02T08:09:58;9.23;;;7.27;;
10481;SDS011;5288;42.334;23.876;2023-07-02T08:12:27;9.30;;;7.53;;
10481;SDS011;5288;42.334;23.876;2023-07-02T08:14:57;13.03;;;7.00;;
10481;SDS011;5288;42.334;23.876;2023-07-02T08:17:24;8.70;;;7.00;;
10481;SDS011;5288;42.334;23.876;2023-07-02T08:19:51;10.20;;;7.27;;
10481;SDS011;5288;42.334;23.876;2023-07-02T08:22:18;28.80;;;8.87;;
10481;SDS011;5288;42.334;23.876;2023-07-02T08:24:45;10.17;;;7.17;;
10481;SDS011;5288;42.334;23.876;2023-07-02T08:27:14;7.03;;;6.33;;
10481;SDS011;5288;42.334;23.876;2023-07-02T08:29:44;14.43;;;6.07;;
10481;SDS011;5288;42.334;23.876;2023-07-02T08:32:12;13.43;;;7.27;;
10481;SDS011;5288;42.334;23.876;2023-07-02T08:34:40;9.73;;;7.00;;
10481;SDS011;5288;42.334;23.876;2023-07-02T08:37:07;9.40;;;6.57;;
10481;SDS011;5288;42.334;23.876;2023-07-02T08:39:34;21.70;;;8.27;;
10481;SDS011;5288;42.334;23.876;2023-07-02T08:42:02;8.70;;;7.00;;
10481;SDS011;5288;42.334;23.876;2023-07-02T08:44:30;10.33;;;7.10;;
10481;SDS011;5288;42.334;23.876;2023-07-02T08:46:57;10.50;;;6.23;;
10481;SDS011;5288;42.334;23.876;2023-07-02T08:49:26;9.20;;;6.73;;
10481;SDS011;5288;42.334;23.876;2023-07-02T08:51:54;9.73;;;6.57;;
10481;SDS011;5288;42.334;23.876;2023-07-02T08:54:21;10.40;;;7.63;;
10481;SDS011;5288;42.334;23.876;2023-07-02T08:56:48;10.20;;;7.60;;
10481;SDS011;5288;42.334;23.876;2023-07-02T08:59:15;12.17;;;6.97;;
10481;SDS011;5288;42.334;23.876;2023-07-02T09:01:45;9.60;;;6.93;;
10481;SDS011;5288;42.334;23.876;2023-07-02T09:04:16;9.43;;;7.67;;
10481;SDS011;5288;42.334;23.876;2023-07-02T09:06:46;9.33;;;6.80;;
10481;SDS011;5288;42.334;23.876;2023-07-02T09:09:13;11.03;;;7.07;;
10481;SDS011;5288;42.334;23.876;2023-07-02T09:11:46;10.73;;;7.07;;
10481;SDS011;5288;42.334;23.876;2023-07-02T09:14:23;8.97;;;7.13;;
10481;SDS011;5288;42.334;23.876;2023-07-02T09:17:00;10.43;;;6.73;;
10481;SDS011;5288;42.334;23.876;2023-07-02T09:19:28;12.13;;;9.47;;
10481;SDS011;5288;42.334;23.876;2023-07-02T09:21:57;12.17;;;8.13;;
10481;SDS011;5288;42.334;23.876;2023-07-02T09:24:26;14.07;;;8.33;;
10481;SDS011;5288;42.334;23.876;2023-07-02T09:26:55;11.27;;;7.67;;
10481;SDS011;5288;42.334;23.876;2023-07-02T09:29:23;9.30;;;7.13;;
10481;SDS011;5288;42.334;23.876;2023-07-02T09:31:53;8.30;;;6.60;;
10481;SDS011;5288;42.334;23.876;2023-07-02T09:34:26;10.07;;;6.80;;
10481;SDS011;5288;42.334;23.876;2023-07-02T09:36:56;10.33;;;7.57;;
10481;SDS011;5288;42.334;23.876;2023-07-02T09:39:27;10.33;;;7.37;;
10481;SDS011;5288;42.334;23.876;2023-07-02T09:41:56;10.97;;;7.97;;
10481;SDS011;5288;42.334;23.876;2023-07-02T09:44:25;8.20;;;7.37;;
10481;SDS011;5288;42.334;23.876;2023-07-02T09:46:57;10.23;;;7.50;;
10481;SDS011;5288;42.334;23.876;2023-07-02T09:49:27;10.10;;;7.80;;
10481;SDS011;5288;42.334;23.876;2023-07-02T09:51:59;9.40;;;6.90;;
10481;SDS011;5288;42.334;23.876;2023-07-02T09:54:27;11.50;;;7.43;;
10481;SDS011;5288;42.334;23.876;2023-07-02T09:56:54;11.20;;;8.03;;
10481;SDS011;5288;42.334;23.876;2023-07-02T09:59:22;11.80;;;7.07;;
10481;SDS011;5288;42.334;23.876;2023-07-02T10:01:49;9.60;;;7.60;;
10481;SDS011;5288;42.334;23.876;2023-07-02T10:04:17;9.23;;;7.17;;
10481;SDS011;5288;42.334;23.876;2023-07-02T10:06:45;9.90;;;6.87;;
10481;SDS011;5288;42.334;23.876;2023-07-02T10:09:15;9.43;;;7.63;;
10481;SDS011;5288;42.334;23.876;2023-07-02T10:11:42;11.47;;;7.50;;
10481;SDS011;5288;42.334;23.876;2023-07-02T10:14:09;9.87;;;7.83;;
10481;SDS011;5288;42.334;23.876;2023-07-02T10:19:25;8.80;;;6.83;;
10481;SDS011;5288;42.334;23.876;2023-07-02T10:22:00;11.07;;;7.13;;
10481;SDS011;5288;42.334;23.876;2023-07-02T10:24:30;9.43;;;7.33;;
10481;SDS011;5288;42.334;23.876;2023-07-02T10:26:57;14.47;;;6.83;;
10481;SDS011;5288;42.334;23.876;2023-07-02T10:29:26;9.20;;;6.70;;
10481;SDS011;5288;42.334;23.876;2023-07-02T10:31:55;11.37;;;6.60;;
10481;SDS011;5288;42.334;23.876;2023-07-02T10:34:29;12.00;;;7.37;;
10481;SDS011;5288;42.334;23.876;2023-07-02T10:36:57;11.73;;;6.93;;
10481;SDS011;5288;42.334;23.876;2023-07-02T10:39:24;16.77;;;8.23;;
10481;SDS011;5288;42.334;23.876;2023-07-02T10:42:02;10.67;;;7.70;;
10481;SDS011;5288;42.334;23.876;2023-07-02T10:44:30;10.57;;;7.20;;
10481;SDS011;5288;42.334;23.876;2023-07-02T10:46:58;16.07;;;7.47;;
10481;SDS011;5288;42.334;23.876;2023-07-02T10:49:30;10.93;;;7.00;;
10481;SDS011;5288;42.334;23.876;2023-07-02T10:51:58;11.20;;;7.17;;
10481;SDS011;5288;42.334;23.876;2023-07-02T10:54:25;9.10;;;6.70;;
10481;SDS011;5288;42.334;23.876;2023-07-02T10:56:57;10.17;;;5.77;;
10481;SDS011;5288;42.334;23.876;2023-07-02T10:59:25;7.53;;;5.53;;
10481;SDS011;5288;42.334;23.876;2023-07-02T11:01:52;7.73;;;5.07;;
10481;SDS011;5288;42.334;23.876;2023-07-02T11:04:20;5.63;;;4.82;;
10481;SDS011;5288;42.334;23.876;2023-07-02T11:06:48;7.45;;;5.55;;
10481;SDS011;5288;42.334;23.876;2023-07-02T11:09:16;6.35;;;5.65;;
10481;SDS011;5288;42.334;23.876;2023-07-02T11:11:49;7.07;;;6.13;;
10481;SDS011;5288;42.334;23.876;2023-07-02T11:14:27;9.25;;;6.25;;
10481;SDS011;5288;42.334;23.876;2023-07-02T11:16:55;6.75;;;5.40;;
10481;SDS011;5288;42.334;23.876;2023-07-02T11:19:22;9.80;;;6.30;;
10481;SDS011;5288;42.334;23.876;2023-07-02T11:21:50;8.95;;;5.65;;
10481;SDS011;5288;42.334;23.876;2023-07-02T11:24:26;18.50;;;6.70;;
10481;SDS011;5288;42.334;23.876;2023-07-02T11:26:54;9.95;;;5.82;;
10481;SDS011;5288;42.334;23.876;2023-07-02T11:29:21;11.23;;;6.20;;
10481;SDS011;5288;42.334;23.876;2023-07-02T11:31:50;8.50;;;5.28;;
10481;SDS011;5288;42.334;23.876;2023-07-02T11:34:18;6.55;;;5.63;;
10481;SDS011;5288;42.334;23.876;2023-07-02T11:36:46;6.15;;;5.55;;
10481;SDS011;5288;42.334;23.876;2023-07-02T11:39:15;6.65;;;5.43;;
10481;SDS011;5288;42.334;23.876;2023-07-02T11:41:43;8.70;;;6.07;;
10481;SDS011;5288;42.334;23.876;2023-07-02T11:44:11;8.40;;;5.55;;
10481;SDS011;5288;42.334;23.876;2023-07-02T11:46:38;8.40;;;5.97;;
10481;SDS011;5288;42.334;23.876;2023-07-02T11:49:06;6.00;;;5.13;;
10481;SDS011;5288;42.334;23.876;2023-07-02T11:51:34;9.20;;;6.03;;
10481;SDS011;5288;42.334;23.876;2023-07-02T11:54:02;6.07;;;5.32;;
10481;SDS011;5288;42.334;23.876;2023-07-02T11:56:29;7.90;;;5.30;;
10481;SDS011;5288;42.334;23.876;2023-07-02T11:58:56;9.00;;;5.72;;
10481;SDS011;5288;42.334;23.876;2023-07-02T12:01:23;6.57;;;5.18;;
10481;SDS011;5288;42.334;23.876;2023-07-02T12:03:50;6.32;;;5.55;;
10481;SDS011;5288;42.334;23.876;2023-07-02T12:06:19;4.90;;;4.40;;
10481;SDS011;5288;42.334;23.876;2023-07-02T12:08:45;5.00;;;4.45;;
10481;SDS011;5288;42.334;23.876;2023-07-02T12:11:12;5.60;;;4.47;;
10481;SDS011;5288;42.334;23.876;2023-07-02T12:13:41;5.30;;;4.65;;
10481;SDS011;5288;42.334;23.876;2023-07-02T12:16:08;7.57;;;4.75;;
10481;SDS011;5288;42.334;23.876;2023-07-02T12:18:35;4.60;;;4.10;;
10481;SDS011;5288;42.334;23.876;2023-07-02T12:21:02;9.18;;;5.10;;
10481;SDS011;5288;42.334;23.876;2023-07-02T12:23:30;4.35;;;3.95;;
10481;SDS011;5288;42.334;23.876;2023-07-02T12:25:57;4.82;;;4.10;;
10481;SDS011;5288;42.334;23.876;2023-07-02T12:28:24;6.35;;;4.00;;
10481;SDS011;5288;42.334;23.876;2023-07-02T12:30:51;5.53;;;4.30;;
10481;SDS011;5288;42.334;23.876;2023-07-02T12:33:18;7.72;;;5.65;;
10481;SDS011;5288;42.334;23.876;2023-07-02T12:35:45;10.05;;;5.03;;
10481;SDS011;5288;42.334;23.876;2023-07-02T12:38:12;8.15;;;4.20;;
10481;SDS011;5288;42.334;23.876;2023-07-02T12:40:40;6.60;;;4.28;;
10481;SDS011;5288;42.334;23.876;2023-07-02T12:43:07;6.10;;;4.60;;
10481;SDS011;5288;42.334;23.876;2023-07-02T12:45:34;6.05;;;5.30;;
10481;SDS011;5288;42.334;23.876;2023-07-02T12:48:01;10.93;;;4.65;;
10481;SDS011;5288;42.334;23.876;2023-07-02T12:50:28;5.00;;;4.50;;
10481;SDS011;5288;42.334;23.876;2023-07-02T12:52:55;5.38;;;4.50;;
10481;SDS011;5288;42.334;23.876;2023-07-02T12:55:22;6.60;;;4.80;;
10481;SDS011;5288;42.334;23.876;2023-07-02T12:57:51;6.28;;;4.50;;
10481;SDS011;5288;42.334;23.876;2023-07-02T13:00:18;8.25;;;4.53;;
10481;SDS011;5288;42.334;23.876;2023-07-02T13:02:46;4.43;;;4.03;;
10481;SDS011;5288;42.334;23.876;2023-07-02T13:05:13;5.30;;;4.80;;
10481;SDS011;5288;42.334;23.876;2023-07-02T13:07:40;6.53;;;4.80;;
10481;SDS011;5288;42.334;23.876;2023-07-02T13:10:07;4.72;;;3.85;;
10481;SDS011;5288;42.334;23.876;2023-07-02T13:12:34;5.68;;;4.22;;
10481;SDS011;5288;42.334;23.876;2023-07-02T13:15:03;5.53;;;4.40;;
10481;SDS011;5288;42.334;23.876;2023-07-02T13:17:30;4.30;;;3.90;;
10481;SDS011;5288;42.334;23.876;2023-07-02T13:19:57;4.97;;;4.47;;
10481;SDS011;5288;42.334;23.876;2023-07-02T13:22:24;4.38;;;3.97;;
10481;SDS011;5288;42.334;23.876;2023-07-02T13:24:51;5.43;;;4.45;;
10481;SDS011;5288;42.334;23.876;2023-07-02T13:27:18;5.70;;;4.38;;
10481;SDS011;5288;42.334;23.876;2023-07-02T13:29:45;6.28;;;4.25;;
10481;SDS011;5288;42.334;23.876;2023-07-02T13:32:17;5.95;;;4.40;;
10481;SDS011;5288;42.334;23.876;2023-07-02T13:34:47;4.78;;;4.32;;
10481;SDS011;5288;42.334;23.876;2023-07-02T13:37:14;4.53;;;4.00;;
10481;SDS011;5288;42.334;23.876;2023-07-02T13:39:43;6.50;;;4.55;;
10481;SDS011;5288;42.334;23.876;2023-07-02T13:42:11;5.10;;;4.40;;
10481;SDS011;5288;42.334;23.876;2023-07-02T13:44:38;7.32;;;4.53;;
10481;SDS011;5288;42.334;23.876;2023-07-02T13:47:05;6.80;;;4.07;;
10481;SDS011;5288;42.334;23.876;2023-07-02T13:49:34;6.30;;;4.45;;
10481;SDS011;5288;42.334;23.876;2023-07-02T13:52:01;6.45;;;4.47;;
10481;SDS011;5288;42.334;23.876;2023-07-02T13:54:29;5.68;;;4.18;;
10481;SDS011;5288;42.334;23.876;2023-07-02T13:56:56;6.82;;;6.13;;
10481;SDS011;5288;42.334;23.876;2023-07-02T13:59:25;6.38;;;4.97;;
10481;SDS011;5288;42.334;23.876;2023-07-02T14:01:52;5.30;;;4.40;;
10481;SDS011;5288;42.334;23.876;2023-07-02T14:04:19;6.93;;;5.03;;
10481;SDS011;5288;42.334;23.876;2023-07-02T14:06:46;8.82;;;6.22;;
10481;SDS011;5288;42.334;23.876;2023-07-02T14:09:13;5.50;;;4.95;;
10481;SDS011;5288;42.334;23.876;2023-07-02T14:11:41;6.07;;;4.72;;
10481;SDS011;5288;42.334;23.876;2023-07-02T14:14:09;5.93;;;5.35;;
10481;SDS011;5288;42.334;23.876;2023-07-02T14:16:37;4.82;;;4.32;;
10481;SDS011;5288;42.334;23.876;2023-07-02T14:19:04;6.88;;;4.57;;
10481;SDS011;5288;42.334;23.876;2023-07-02T14:21:34;4.95;;;4.22;;
10481;SDS011;5288;42.334;23.876;2023-07-02T14:24:07;5.07;;;4.50;;
10481;SDS011;5288;42.334;23.876;2023-07-02T14:26:35;6.75;;;4.60;;
10481;SDS011;5288;42.334;23.876;2023-07-02T14:29:02;9.93;;;6.20;;
10481;SDS011;5288;42.334;23.876;2023-07-02T14:31:29;5.45;;;4.45;;
10481;SDS011;5288;42.334;23.876;2023-07-02T14:34:01;7.13;;;5.10;;
10481;SDS011;5288;42.334;23.876;2023-07-02T14:36:28;6.10;;;4.80;;
10481;SDS011;5288;42.334;23.876;2023-07-02T14:38:56;5.05;;;4.30;;
10481;SDS011;5288;42.334;23.876;2023-07-02T14:41:25;6.95;;;5.10;;
10481;SDS011;5288;42.334;23.876;2023-07-02T14:44:01;5.35;;;4.80;;
10481;SDS011;5288;42.334;23.876;2023-07-02T14:46:37;5.90;;;5.28;;